createdAt,value
2022-09-24T00:02:30.727Z,7.28
2022-09-24T00:05:40.169Z,7.26
2022-09-24T00:08:42.316Z,7.17
2022-09-24T00:11:45.938Z,7.12
2022-09-24T00:14:47.827Z,7.15
2022-09-24T00:17:49.580Z,7.16
2022-09-24T00:20:51.402Z,7.10
2022-09-24T00:23:56.195Z,7.10
2022-09-24T00:26:58.640Z,7.18
2022-09-24T00:30:00.414Z,7.14
2022-09-24T00:33:03.422Z,7.15
2022-09-24T00:36:05.865Z,7.01
2022-09-24T00:39:07.863Z,6.94
2022-09-24T00:42:10.380Z,6.89
2022-09-24T00:45:12.196Z,6.86
2022-09-24T00:48:14.540Z,6.81
2022-09-24T00:51:20.205Z,6.83
2022-09-24T00:54:28.906Z,6.73
2022-09-24T00:57:31.482Z,6.76
2022-09-24T01:00:34.156Z,6.80
2022-09-24T01:03:41.297Z,6.87
2022-09-24T01:06:43.649Z,6.92
2022-09-24T01:09:47.867Z,6.97
2022-09-24T01:12:59.706Z,6.91
2022-09-24T01:16:10.594Z,6.96
2022-09-24T01:19:45.282Z,6.98
2022-09-24T01:23:18.233Z,7.04
2022-09-24T01:26:48.018Z,7.04
2022-09-24T01:29:53.715Z,7.07
2022-09-24T01:32:58.532Z,7.07
2022-09-24T01:36:06.917Z,7.00
2022-09-24T01:39:09.332Z,7.00
2022-09-24T01:42:12.411Z,6.96
2022-09-24T01:45:14.828Z,7.00
2022-09-24T01:48:21.276Z,7.02
2022-09-24T01:51:34.787Z,6.99
2022-09-24T01:54:42.955Z,7.03
2022-09-24T01:57:57.590Z,7.01
2022-09-24T02:01:13.119Z,6.98
2022-09-24T02:04:18.761Z,7.06
2022-09-24T02:07:25.287Z,7.15
2022-09-24T02:10:31.075Z,7.05
2022-09-24T02:13:47.542Z,7.15
2022-09-24T02:16:50.117Z,7.18
2022-09-24T02:19:53.179Z,7.20
2022-09-24T02:22:57.674Z,7.25
2022-09-24T02:26:02.166Z,7.29
2022-09-24T02:29:06.009Z,7.27
2022-09-24T02:32:09.555Z,7.39
2022-09-24T02:35:13.013Z,7.44
2022-09-24T02:38:18.284Z,7.46
2022-09-24T02:41:24.181Z,7.44
2022-09-24T02:44:25.877Z,7.32
2022-09-24T02:47:29.202Z,7.23
2022-09-24T02:50:41.363Z,7.22
2022-09-24T02:53:43.260Z,7.24
2022-09-24T02:56:45.180Z,7.26
2022-09-24T02:59:47.482Z,7.22
2022-09-24T03:02:49.293Z,7.25
2022-09-24T03:05:53.315Z,7.12
2022-09-24T03:08:55.221Z,7.10
2022-09-24T03:12:00.682Z,7.04
2022-09-24T03:15:03.604Z,6.99
2022-09-24T03:18:15.612Z,6.92
2022-09-24T03:21:20.347Z,6.81
2022-09-24T03:24:22.453Z,6.77
2022-09-24T03:27:24.293Z,6.72
2022-09-24T03:30:44.643Z,6.76
2022-09-24T03:33:49.892Z,6.72
2022-09-24T03:36:51.787Z,6.76
2022-09-24T03:39:53.620Z,6.70
2022-09-24T03:42:56.053Z,6.68
2022-09-24T03:45:58.704Z,6.59
2022-09-24T03:49:00.601Z,6.52
2022-09-24T03:52:03.214Z,6.43
2022-09-24T03:55:09.222Z,6.39
2022-09-24T03:58:12.115Z,6.39
2022-09-24T04:01:14.784Z,6.45
2022-09-24T04:04:17.735Z,6.35
2022-09-24T04:07:19.630Z,6.41
2022-09-24T04:10:22.135Z,6.42
2022-09-24T04:13:24.197Z,6.49
2022-09-24T04:16:26.403Z,6.57
2022-09-24T04:19:29.627Z,6.56
2022-09-24T04:22:31.545Z,6.60
2022-09-24T04:25:36.909Z,6.64
2022-09-24T04:28:39.437Z,6.71
2022-09-24T04:31:41.418Z,6.62
2022-09-24T04:34:43.719Z,6.55
2022-09-24T04:37:46.586Z,6.57
2022-09-24T04:40:49.595Z,6.54
2022-09-24T04:43:51.528Z,6.51
2022-09-24T04:46:53.661Z,6.47
2022-09-24T04:49:55.933Z,6.51
2022-09-24T04:52:58.065Z,6.57
2022-09-24T04:56:00.414Z,6.65
2022-09-24T04:59:02.575Z,6.70
2022-09-24T05:02:09.648Z,6.84
2022-09-24T05:05:12.697Z,6.92
2022-09-24T05:08:15.822Z,7.02
2022-09-24T05:11:19.494Z,7.23
2022-09-24T05:14:21.206Z,7.29
2022-09-24T05:17:23.307Z,7.38
2022-09-24T05:20:25.877Z,7.47
2022-09-24T05:23:28.267Z,7.47
2022-09-24T05:26:48.812Z,7.58
2022-09-24T05:29:51.421Z,7.73
2022-09-24T05:32:53.673Z,7.82
2022-09-24T05:35:56.684Z,7.87
2022-09-24T05:38:59.238Z,7.89
2022-09-24T05:42:04.525Z,7.93
2022-09-24T05:45:07.263Z,7.98
2022-09-24T05:48:09.209Z,8.09
2022-09-24T05:51:11.469Z,8.11
2022-09-24T05:54:14.053Z,8.17
2022-09-24T05:57:16.828Z,8.30
2022-09-24T06:00:19.681Z,8.37
2022-09-24T06:03:21.749Z,8.52
2022-09-24T06:06:27.568Z,8.69
2022-09-24T06:09:29.453Z,8.83
2022-09-24T06:12:35.096Z,8.93
2022-09-24T06:15:38.717Z,8.88
2022-09-24T06:18:43.077Z,8.95
2022-09-24T06:21:45.370Z,8.93
2022-09-24T06:24:47.679Z,8.86
2022-09-24T06:28:02.747Z,8.84
2022-09-24T06:31:06.291Z,8.89
2022-09-24T06:34:09.246Z,9.16
2022-09-24T06:37:11.541Z,9.60
2022-09-24T06:40:14.939Z,9.87
2022-09-24T06:43:18.302Z,10.47
2022-09-24T06:46:20.577Z,10.90
2022-09-24T06:49:23.464Z,10.98
2022-09-24T06:52:25.576Z,10.95
2022-09-24T06:55:27.946Z,11.06
2022-09-24T06:58:30.197Z,11.03
2022-09-24T07:01:32.364Z,11.14
2022-09-24T07:04:37.538Z,10.89
2022-09-24T07:07:39.738Z,10.90
2022-09-24T07:10:44.005Z,10.79
2022-09-24T07:13:46.079Z,11.07
2022-09-24T07:16:49.349Z,11.25
2022-09-24T07:19:51.931Z,11.40
2022-09-24T07:22:55.473Z,11.55
2022-09-24T07:25:58.138Z,11.32
2022-09-24T07:29:00.042Z,11.06
2022-09-24T07:32:03.886Z,11.27
2022-09-24T07:35:06.788Z,11.40
2022-09-24T07:38:12.441Z,11.53
2022-09-24T07:41:14.750Z,11.97
2022-09-24T07:44:18.307Z,12.28
2022-09-24T07:47:20.112Z,12.33
2022-09-24T07:50:22.470Z,12.64
2022-09-24T07:53:24.680Z,12.58
2022-09-24T07:56:26.846Z,12.63
2022-09-24T07:59:30.802Z,12.91
2022-09-24T08:02:32.724Z,12.81
2022-09-24T08:05:35.725Z,12.86
2022-09-24T08:08:39.151Z,13.05
2022-09-24T08:11:41.481Z,13.17
2022-09-24T08:14:45.017Z,13.43
2022-09-24T08:17:46.833Z,13.71
2022-09-24T08:20:50.002Z,13.73
2022-09-24T08:23:52.269Z,13.97
2022-09-24T08:26:54.774Z,13.84
2022-09-24T08:29:58.135Z,13.84
2022-09-24T08:33:00.064Z,13.76
2022-09-24T08:36:07.816Z,13.67
2022-09-24T08:39:10.962Z,13.73
2022-09-24T08:42:34.388Z,13.73
2022-09-24T08:46:03.441Z,13.90
2022-09-24T08:49:07.036Z,13.97
2022-09-24T08:52:23.860Z,14.16
2022-09-24T08:55:38.807Z,14.28
2022-09-24T08:59:01.901Z,14.56
2022-09-24T09:02:42.248Z,14.56
2022-09-24T09:05:53.658Z,14.92
2022-09-24T09:09:09.871Z,14.96
2022-09-24T09:12:18.615Z,14.58
2022-09-24T09:15:26.123Z,14.59
2022-09-24T09:18:38.578Z,14.64
2022-09-24T09:21:43.536Z,14.89
2022-09-24T09:24:50.031Z,15.12
2022-09-24T09:28:05.244Z,15.13
2022-09-24T09:31:40.186Z,15.28
2022-09-24T09:34:55.442Z,15.52
2022-09-24T09:38:23.974Z,15.36
2022-09-24T09:41:38.076Z,15.88
2022-09-24T09:44:42.225Z,15.95
2022-09-24T09:47:50.989Z,16.15
2022-09-24T09:51:06.342Z,16.22
2022-09-24T09:54:09.315Z,16.37
2022-09-24T09:57:17.794Z,16.60
2022-09-24T10:00:38.284Z,16.72
2022-09-24T10:03:52.688Z,16.39
2022-09-24T10:07:05.420Z,16.48
2022-09-24T10:10:26.020Z,16.82
2022-09-24T10:13:28.102Z,16.81
2022-09-24T10:16:31.069Z,16.62
2022-09-24T10:19:36.438Z,16.70
2022-09-24T10:22:39.064Z,16.93
2022-09-24T10:25:41.752Z,17.16
2022-09-24T10:29:08.574Z,16.93
2022-09-24T10:32:18.764Z,17.05
2022-09-24T10:35:27.056Z,17.05
2022-09-24T10:38:30.157Z,17.53
2022-09-24T10:41:32.860Z,17.00
2022-09-24T10:44:39.154Z,17.33
2022-09-24T10:47:45.539Z,17.50
2022-09-24T10:51:12.373Z,17.87
2022-09-24T10:54:43.435Z,17.82
2022-09-24T10:58:06.809Z,17.44
2022-09-24T11:01:39.553Z,17.63
2022-09-24T11:04:55.063Z,17.50
2022-09-24T11:08:30.934Z,17.48
2022-09-24T11:11:37.133Z,17.80
2022-09-24T11:14:56.044Z,17.76
2022-09-24T11:18:16.475Z,17.84
2022-09-24T11:21:37.703Z,17.73
2022-09-24T11:25:09.376Z,17.14
2022-09-24T11:28:26.318Z,17.79
2022-09-24T11:31:41.893Z,17.68
2022-09-24T11:34:53.123Z,17.42
2022-09-24T11:38:19.783Z,17.74
2022-09-24T11:41:48.031Z,17.54
2022-09-24T11:45:00.385Z,17.73
2022-09-24T11:48:11.465Z,17.78
2022-09-24T11:51:39.407Z,18.20
2022-09-24T11:55:12.425Z,18.42
2022-09-24T11:58:24.493Z,18.15
2022-09-24T12:01:33.903Z,18.85
2022-09-24T12:04:51.311Z,18.79
2022-09-24T12:07:56.448Z,18.81
2022-09-24T12:11:04.120Z,19.10
2022-09-24T12:14:20.580Z,18.26
2022-09-24T12:17:32.357Z,18.22
2022-09-24T12:21:02.569Z,18.46
2022-09-24T12:24:11.696Z,18.44
2022-09-24T12:27:21.321Z,18.86
2022-09-24T12:31:03.120Z,18.58
2022-09-24T12:34:12.303Z,18.47
2022-09-24T12:37:17.798Z,18.84
2022-09-24T12:40:48.698Z,19.39
2022-09-24T12:44:18.331Z,19.14
2022-09-24T12:47:25.650Z,18.65
2022-09-24T12:50:31.251Z,18.91
2022-09-24T12:53:35.889Z,19.04
2022-09-24T12:56:38.548Z,18.91
2022-09-24T12:59:56.894Z,19.19
2022-09-24T13:03:01.442Z,19.05
2022-09-24T13:06:06.292Z,18.88
2022-09-24T13:09:46.912Z,19.09
2022-09-24T13:12:49.722Z,18.98
2022-09-24T13:16:06.425Z,18.76
2022-09-24T13:19:25.849Z,18.36
2022-09-24T13:22:34.797Z,18.60
2022-09-24T13:25:38.214Z,18.48
2022-09-24T13:28:51.450Z,18.15
2022-09-24T13:32:01.196Z,18.15
2022-09-24T13:35:08.194Z,17.97
2022-09-24T13:38:20.238Z,18.04
2022-09-24T13:41:40.993Z,18.05
2022-09-24T13:44:45.924Z,18.00
2022-09-24T13:47:52.234Z,17.97
2022-09-24T13:50:55.820Z,18.41
2022-09-24T13:54:19.758Z,18.09
2022-09-24T13:57:27.060Z,18.48
2022-09-24T14:00:32.875Z,18.14
2022-09-24T14:03:37.161Z,18.40
2022-09-24T14:06:42.052Z,18.61
2022-09-24T14:09:47.737Z,18.49
2022-09-24T14:13:12.785Z,18.28
2022-09-24T14:16:19.362Z,18.04
2022-09-24T14:19:22.717Z,17.96
2022-09-24T14:22:31.531Z,18.02
2022-09-24T14:25:36.663Z,18.25
2022-09-24T14:28:39.227Z,18.06
2022-09-24T14:31:51.316Z,18.08
2022-09-24T14:34:57.117Z,18.25
2022-09-24T14:38:12.155Z,18.08
2022-09-24T14:41:18.936Z,18.18
2022-09-24T14:44:23.859Z,18.42
2022-09-24T14:47:31.255Z,18.26
2022-09-24T14:50:38.725Z,18.33
2022-09-24T14:53:41.494Z,18.68
2022-09-24T14:56:43.802Z,18.58
2022-09-24T14:59:47.412Z,18.44
2022-09-24T15:02:52.677Z,18.66
2022-09-24T15:06:16.615Z,18.78
2022-09-24T15:09:31.957Z,18.44
2022-09-24T15:12:37.818Z,18.48
2022-09-24T15:15:40.172Z,18.38
2022-09-24T15:18:42.301Z,18.06
2022-09-24T15:21:45.563Z,18.02
2022-09-24T15:24:49.146Z,17.90
2022-09-24T15:27:54.799Z,17.54
2022-09-24T15:30:57.776Z,17.55
2022-09-24T15:33:59.958Z,17.34
2022-09-24T15:37:02.438Z,17.15
2022-09-24T15:40:13.129Z,17.08
2022-09-24T15:43:21.834Z,17.02
2022-09-24T15:46:26.774Z,17.00
2022-09-24T15:49:28.799Z,16.78
2022-09-24T15:52:33.818Z,16.72
2022-09-24T15:55:36.609Z,16.58
2022-09-24T15:58:39.005Z,16.54
2022-09-24T16:01:42.136Z,16.57
2022-09-24T16:04:44.519Z,16.58
2022-09-24T16:07:47.517Z,16.48
2022-09-24T16:10:50.079Z,16.41
2022-09-24T16:13:53.430Z,16.45
2022-09-24T16:16:56.208Z,16.40
2022-09-24T16:19:58.816Z,16.39
2022-09-24T16:23:01.416Z,16.20
2022-09-24T16:26:03.791Z,15.93
2022-09-24T16:29:07.250Z,15.76
2022-09-24T16:32:09.205Z,15.62
2022-09-24T16:35:14.167Z,15.48
2022-09-24T16:38:22.298Z,15.31
2022-09-24T16:41:25.967Z,15.22
2022-09-24T16:44:28.491Z,15.08
2022-09-24T16:47:34.650Z,15.02
2022-09-24T16:50:37.305Z,14.93
2022-09-24T16:53:41.429Z,14.88
2022-09-24T16:56:52.514Z,14.81
2022-09-24T16:59:54.513Z,14.84
2022-09-24T17:02:57.316Z,14.88
2022-09-24T17:05:59.551Z,14.85
2022-09-24T17:09:20.617Z,14.89
2022-09-24T17:12:22.837Z,14.70
2022-09-24T17:15:24.804Z,14.82
2022-09-24T17:18:27.884Z,14.72
2022-09-24T17:21:30.198Z,14.75
2022-09-24T17:24:33.567Z,14.56
2022-09-24T17:27:36.056Z,14.45
2022-09-24T17:30:39.299Z,14.25
2022-09-24T17:33:45.558Z,14.23
2022-09-24T17:36:48.310Z,14.20
2022-09-24T17:39:50.599Z,14.13
2022-09-24T17:42:53.244Z,14.07
2022-09-24T17:46:03.450Z,14.08
2022-09-24T17:49:06.430Z,14.20
2022-09-24T17:52:09.035Z,14.15
2022-09-24T17:55:14.614Z,14.13
2022-09-24T17:58:17.619Z,14.01
2022-09-24T18:01:25.264Z,14.01
2022-09-24T18:04:32.160Z,13.94
2022-09-24T18:07:34.753Z,13.83
2022-09-24T18:10:37.461Z,13.83
2022-09-24T18:13:39.937Z,13.81
2022-09-24T18:16:43.077Z,13.82
2022-09-24T18:19:46.039Z,13.86
2022-09-24T18:22:48.258Z,13.78
2022-09-24T18:25:53.582Z,13.61
2022-09-24T18:28:58.747Z,13.47
2022-09-24T18:32:02.252Z,13.44
2022-09-24T18:35:04.884Z,13.37
2022-09-24T18:38:09.239Z,13.34
2022-09-24T18:41:16.778Z,13.35
2022-09-24T18:44:20.119Z,13.22
2022-09-24T18:47:22.289Z,13.12
2022-09-24T18:50:26.673Z,13.08
2022-09-24T18:53:31.503Z,13.03
2022-09-24T18:56:34.218Z,13.03
2022-09-24T18:59:47.755Z,12.95
2022-09-24T19:02:50.093Z,13.00
2022-09-24T19:05:54.050Z,12.98
2022-09-24T19:08:56.520Z,13.00
2022-09-24T19:11:59.337Z,12.92
2022-09-24T19:15:02.023Z,12.87
2022-09-24T19:18:04.439Z,12.79
2022-09-24T19:21:08.645Z,12.81
2022-09-24T19:24:11.926Z,12.86
2022-09-24T19:27:14.505Z,12.87
2022-09-24T19:30:18.386Z,12.80
2022-09-24T19:33:21.502Z,12.87
2022-09-24T19:36:24.026Z,12.85
2022-09-24T19:39:27.092Z,12.80
2022-09-24T19:42:31.806Z,12.76
2022-09-24T19:45:34.099Z,12.72
2022-09-24T19:48:40.727Z,12.69
2022-09-24T19:51:43.703Z,12.75
2022-09-24T19:54:50.009Z,12.67
2022-09-24T19:57:53.054Z,12.68
2022-09-24T20:00:55.371Z,12.61
2022-09-24T20:03:59.556Z,12.58
2022-09-24T20:07:05.807Z,12.61
2022-09-24T20:10:10.498Z,12.59
2022-09-24T20:13:13.232Z,12.64
2022-09-24T20:16:19.898Z,12.68
2022-09-24T20:19:22.484Z,12.65
2022-09-24T20:22:26.631Z,12.63
2022-09-24T20:25:47.309Z,12.67
2022-09-24T20:28:49.997Z,12.72
2022-09-24T20:31:55.372Z,12.67
2022-09-24T20:35:01.513Z,12.68
2022-09-24T20:38:03.826Z,12.65
2022-09-24T20:41:16.699Z,12.60
2022-09-24T20:44:19.471Z,12.48
2022-09-24T20:47:22.134Z,12.44
2022-09-24T20:50:24.858Z,12.29
2022-09-24T20:53:29.206Z,12.23
2022-09-24T20:56:31.796Z,12.19
2022-09-24T20:59:34.121Z,12.17
2022-09-24T21:02:41.562Z,12.14
2022-09-24T21:05:45.087Z,12.06
2022-09-24T21:08:48.072Z,12.07
2022-09-24T21:11:50.672Z,11.97
2022-09-24T21:14:52.930Z,11.95
2022-09-24T21:18:21.171Z,11.89
2022-09-24T21:21:20.850Z,11.82
2022-09-24T21:24:26.326Z,11.80
2022-09-24T21:27:30.394Z,11.76
2022-09-24T21:30:32.274Z,11.73
2022-09-24T21:33:35.665Z,11.63
2022-09-24T21:36:44.549Z,11.58
2022-09-24T21:39:47.352Z,11.57
2022-09-24T21:42:50.177Z,11.54
2022-09-24T21:45:55.320Z,11.58
2022-09-24T21:48:57.456Z,11.55
2022-09-24T21:51:59.888Z,11.48
2022-09-24T21:55:01.733Z,11.43
2022-09-24T21:58:03.831Z,11.43
2022-09-24T22:01:28.466Z,11.37
2022-09-24T22:04:32.823Z,11.32
2022-09-24T22:07:35.102Z,11.35
2022-09-24T22:10:37.552Z,11.34
2022-09-24T22:13:40.559Z,11.32
2022-09-24T22:16:42.605Z,11.35
2022-09-24T22:19:44.747Z,11.36
2022-09-24T22:22:46.590Z,11.35
2022-09-24T22:25:55.401Z,11.37
2022-09-24T22:28:57.580Z,11.34
2022-09-24T22:31:59.770Z,11.33
2022-09-24T22:35:20.266Z,11.35
2022-09-24T22:38:23.611Z,11.39
2022-09-24T22:41:31.320Z,11.50
2022-09-24T22:44:33.670Z,11.55
2022-09-24T22:47:35.657Z,11.58
2022-09-24T22:50:37.584Z,11.55
2022-09-24T22:53:41.271Z,11.53
2022-09-24T22:56:43.261Z,11.54
2022-09-24T22:59:46.194Z,11.51
2022-09-24T23:02:48.123Z,11.62
2022-09-24T23:05:51.683Z,11.66
2022-09-24T23:08:55.083Z,11.69
2022-09-24T23:11:56.848Z,11.69
2022-09-24T23:14:59.973Z,11.69
2022-09-24T23:18:01.970Z,11.67
2022-09-24T23:21:08.262Z,11.66
2022-09-24T23:24:20.066Z,11.70
2022-09-24T23:27:22.589Z,11.66
2022-09-24T23:30:24.829Z,11.59
2022-09-24T23:33:26.836Z,11.48
2022-09-24T23:36:31.565Z,11.43
2022-09-24T23:39:33.902Z,11.44
2022-09-24T23:42:35.676Z,11.37
2022-09-24T23:45:37.931Z,11.41
2022-09-24T23:48:40.092Z,11.45
2022-09-24T23:51:42.563Z,11.41
2022-09-24T23:54:44.764Z,11.41
2022-09-24T23:57:46.584Z,11.32
